sensor_id;sensor_type;location;lat;lon;timestamp;pressure;altitude;pressure_sealevel;temperature;humidity
34566;BME280;20803;42.676;26.348;2022-11-20T00:00:29;98383.09;;;16.52;100.00
34566;BME280;20803;42.676;26.348;2022-11-20T00:02:54;98364.03;;;16.47;100.00
34566;BME280;20803;42.676;26.348;2022-11-20T00:05:19;98370.41;;;16.69;100.00
34566;BME280;20803;42.676;26.348;2022-11-20T00:07:46;98376.47;;;16.68;100.00
34566;BME280;20803;42.676;26.348;2022-11-20T00:10:11;98371.97;;;16.70;100.00
34566;BME280;20803;42.676;26.348;2022-11-20T00:12:37;98377.25;;;16.68;100.00
34566;BME280;20803;42.676;26.348;2022-11-20T00:15:03;98389.59;;;16.71;100.00
34566;BME280;20803;42.676;26.348;2022-11-20T00:17:28;98394.44;;;16.70;100.00
34566;BME280;20803;42.676;26.348;2022-11-20T00:19:54;98388.34;;;16.72;100.00
34566;BME280;20803;42.676;26.348;2022-11-20T00:22:19;98377.78;;;16.76;100.00
34566;BME280;20803;42.676;26.348;2022-11-20T00:24:45;98377.63;;;16.79;100.00
34566;BME280;20803;42.676;26.348;2022-11-20T00:27:10;98382.31;;;16.82;100.00
34566;BME280;20803;42.676;26.348;2022-11-20T00:29:35;98389.00;;;16.85;100.00
34566;BME280;20803;42.676;26.348;2022-11-20T00:32:01;98390.72;;;16.82;100.00
34566;BME280;20803;42.676;26.348;2022-11-20T00:34:26;98392.72;;;16.73;100.00
34566;BME280;20803;42.676;26.348;2022-11-20T00:36:51;98386.75;;;16.61;100.00
34566;BME280;20803;42.676;26.348;2022-11-20T00:39:17;98382.50;;;16.57;100.00
34566;BME280;20803;42.676;26.348;2022-11-20T00:41:42;98369.72;;;16.56;100.00
34566;BME280;20803;42.676;26.348;2022-11-20T00:44:08;98380.28;;;16.52;100.00
34566;BME280;20803;42.676;26.348;2022-11-20T00:46:33;98349.50;;;16.61;100.00
34566;BME280;20803;42.676;26.348;2022-11-20T00:48:59;98360.09;;;16.66;100.00
34566;BME280;20803;42.676;26.348;2022-11-20T00:51:26;98379.34;;;16.55;100.00
34566;BME280;20803;42.676;26.348;2022-11-20T00:53:52;98369.81;;;16.43;100.00
34566;BME280;20803;42.676;26.348;2022-11-20T00:56:19;98359.03;;;16.42;100.00
34566;BME280;20803;42.676;26.348;2022-11-20T00:58:46;98358.94;;;16.54;100.00
34566;BME280;20803;42.676;26.348;2022-11-20T01:01:17;98360.19;;;16.53;100.00
34566;BME280;20803;42.676;26.348;2022-11-20T01:03:46;98366.72;;;16.50;100.00
34566;BME280;20803;42.676;26.348;2022-11-20T01:06:12;98348.16;;;16.53;100.00
34566;BME280;20803;42.676;26.348;2022-11-20T01:08:38;98352.81;;;16.47;100.00
34566;BME280;20803;42.676;26.348;2022-11-20T01:11:06;98348.16;;;16.44;100.00
34566;BME280;20803;42.676;26.348;2022-11-20T01:13:32;98342.09;;;16.45;100.00
34566;BME280;20803;42.676;26.348;2022-11-20T01:16:04;98359.03;;;16.42;100.00
34566;BME280;20803;42.676;26.348;2022-11-20T01:18:30;98353.59;;;16.38;100.00
34566;BME280;20803;42.676;26.348;2022-11-20T01:21:00;98350.91;;;16.35;100.00
34566;BME280;20803;42.676;26.348;2022-11-20T01:23:25;98353.84;;;16.31;100.00
34566;BME280;20803;42.676;26.348;2022-11-20T01:25:51;98345.25;;;16.26;100.00
34566;BME280;20803;42.676;26.348;2022-11-20T01:28:16;98354.31;;;16.30;100.00
34566;BME280;20803;42.676;26.348;2022-11-20T01:30:42;98363.84;;;16.41;100.00
34566;BME280;20803;42.676;26.348;2022-11-20T01:33:07;98365.78;;;16.53;100.00
34566;BME280;20803;42.676;26.348;2022-11-20T01:35:33;98367.56;;;16.60;100.00
34566;BME280;20803;42.676;26.348;2022-11-20T01:37:58;98365.09;;;16.71;100.00
34566;BME280;20803;42.676;26.348;2022-11-20T01:40:23;98372.47;;;16.78;100.00
34566;BME280;20803;42.676;26.348;2022-11-20T01:42:58;98373.41;;;16.84;100.00
34566;BME280;20803;42.676;26.348;2022-11-20T01:48:54;98363.66;;;17.07;100.00
34566;BME280;20803;42.676;26.348;2022-11-20T01:54:02;98352.47;;;17.25;100.00
34566;BME280;20803;42.676;26.348;2022-11-20T01:56:31;98361.81;;;17.40;100.00
34566;BME280;20803;42.676;26.348;2022-11-20T01:59:01;98370.28;;;17.49;100.00
34566;BME280;20803;42.676;26.348;2022-11-20T02:01:28;98355.28;;;17.52;100.00
34566;BME280;20803;42.676;26.348;2022-11-20T02:03:54;98356.38;;;17.55;100.00
34566;BME280;20803;42.676;26.348;2022-11-20T02:06:24;98355.91;;;17.56;100.00
34566;BME280;20803;42.676;26.348;2022-11-20T02:08:51;98343.13;;;17.55;100.00
34566;BME280;20803;42.676;26.348;2022-11-20T02:11:16;98342.16;;;17.58;100.00
34566;BME280;20803;42.676;26.348;2022-11-20T02:13:42;98360.59;;;17.59;100.00
34566;BME280;20803;42.676;26.348;2022-11-20T02:16:14;98340.31;;;17.64;100.00
34566;BME280;20803;42.676;26.348;2022-11-20T02:18:40;98345.66;;;17.62;100.00
34566;BME280;20803;42.676;26.348;2022-11-20T02:24:08;98348.47;;;17.62;100.00
34566;BME280;20803;42.676;26.348;2022-11-20T02:26:41;98355.47;;;17.67;100.00
34566;BME280;20803;42.676;26.348;2022-11-20T02:29:08;98358.56;;;17.69;100.00
34566;BME280;20803;42.676;26.348;2022-11-20T02:31:38;98349.34;;;17.59;100.00
34566;BME280;20803;42.676;26.348;2022-11-20T02:34:05;98349.72;;;17.61;100.00
34566;BME280;20803;42.676;26.348;2022-11-20T02:36:32;98333.28;;;17.60;100.00
34566;BME280;20803;42.676;26.348;2022-11-20T02:38:58;98329.25;;;17.61;100.00
34566;BME280;20803;42.676;26.348;2022-11-20T02:41:32;98320.03;;;17.69;100.00
34566;BME280;20803;42.676;26.348;2022-11-20T02:43:58;98336.88;;;17.78;100.00
34566;BME280;20803;42.676;26.348;2022-11-20T02:46:23;98331.59;;;17.80;100.00
34566;BME280;20803;42.676;26.348;2022-11-20T02:48:49;98313.63;;;17.78;100.00
34566;BME280;20803;42.676;26.348;2022-11-20T02:51:14;98336.25;;;17.83;100.00
34566;BME280;20803;42.676;26.348;2022-11-20T02:53:39;98321.59;;;17.70;100.00
34566;BME280;20803;42.676;26.348;2022-11-20T02:56:05;98346.25;;;17.75;100.00
34566;BME280;20803;42.676;26.348;2022-11-20T02:58:31;98325.31;;;17.76;100.00
34566;BME280;20803;42.676;26.348;2022-11-20T03:00:56;98356.69;;;17.75;100.00
34566;BME280;20803;42.676;26.348;2022-11-20T03:03:22;98332.69;;;17.74;100.00
34566;BME280;20803;42.676;26.348;2022-11-20T03:05:47;98323.16;;;17.71;100.00
34566;BME280;20803;42.676;26.348;2022-11-20T03:08:13;98337.97;;;17.72;100.00
34566;BME280;20803;42.676;26.348;2022-11-20T03:10:38;98335.00;;;17.75;100.00
34566;BME280;20803;42.676;26.348;2022-11-20T03:13:03;98335.00;;;17.84;100.00
34566;BME280;20803;42.676;26.348;2022-11-20T03:15:29;98334.69;;;17.92;100.00
34566;BME280;20803;42.676;26.348;2022-11-20T03:17:55;98341.56;;;17.91;100.00
34566;BME280;20803;42.676;26.348;2022-11-20T03:20:21;98343.91;;;17.83;100.00
34566;BME280;20803;42.676;26.348;2022-11-20T03:22:46;98338.91;;;17.78;100.00
34566;BME280;20803;42.676;26.348;2022-11-20T03:25:12;98346.56;;;17.87;100.00
34566;BME280;20803;42.676;26.348;2022-11-20T03:27:37;98334.69;;;17.82;100.00
34566;BME280;20803;42.676;26.348;2022-11-20T03:30:03;98340.31;;;17.82;100.00
34566;BME280;20803;42.676;26.348;2022-11-20T03:32:29;98323.44;;;17.82;100.00
34566;BME280;20803;42.676;26.348;2022-11-20T03:34:54;98328.28;;;17.91;100.00
34566;BME280;20803;42.676;26.348;2022-11-20T03:37:19;98330.63;;;17.93;100.00
34566;BME280;20803;42.676;26.348;2022-11-20T03:39:45;98319.84;;;17.91;100.00
34566;BME280;20803;42.676;26.348;2022-11-20T03:42:10;98331.88;;;17.92;100.00
34566;BME280;20803;42.676;26.348;2022-11-20T03:44:56;98330.00;;;17.89;100.00
34566;BME280;20803;42.676;26.348;2022-11-20T03:47:21;98324.38;;;17.89;100.00
34566;BME280;20803;42.676;26.348;2022-11-20T03:49:46;98315.47;;;17.90;100.00
34566;BME280;20803;42.676;26.348;2022-11-20T03:52:12;98314.81;;;17.95;100.00
34566;BME280;20803;42.676;26.348;2022-11-20T03:54:37;98309.38;;;17.92;100.00
34566;BME280;20803;42.676;26.348;2022-11-20T03:57:02;98314.69;;;17.90;100.00
34566;BME280;20803;42.676;26.348;2022-11-20T03:59:28;98317.34;;;17.84;100.00
34566;BME280;20803;42.676;26.348;2022-11-20T04:01:53;98297.34;;;17.82;100.00
34566;BME280;20803;42.676;26.348;2022-11-20T04:04:19;98307.97;;;17.87;100.00
34566;BME280;20803;42.676;26.348;2022-11-20T04:06:44;98306.72;;;17.88;100.00
34566;BME280;20803;42.676;26.348;2022-11-20T04:09:09;98298.91;;;17.92;100.00
34566;BME280;20803;42.676;26.348;2022-11-20T04:11:36;98295.59;;;17.94;100.00
34566;BME280;20803;42.676;26.348;2022-11-20T04:14:06;98297.34;;;17.82;100.00
34566;BME280;20803;42.676;26.348;2022-11-20T04:16:34;98290.03;;;17.84;100.00
34566;BME280;20803;42.676;26.348;2022-11-20T04:19:01;98297.84;;;17.80;100.00
34566;BME280;20803;42.676;26.348;2022-11-20T04:21:27;98314.72;;;17.80;100.00
34566;BME280;20803;42.676;26.348;2022-11-20T04:23:53;98310.19;;;17.74;100.00
34566;BME280;20803;42.676;26.348;2022-11-20T04:26:20;98295.81;;;17.72;100.00
34566;BME280;20803;42.676;26.348;2022-11-20T04:28:46;98306.28;;;17.71;100.00
34566;BME280;20803;42.676;26.348;2022-11-20T04:31:13;98305.69;;;17.67;100.00
34566;BME280;20803;42.676;26.348;2022-11-20T04:33:40;98299.91;;;17.62;100.00
34566;BME280;20803;42.676;26.348;2022-11-20T04:36:15;98309.13;;;17.62;100.00
34566;BME280;20803;42.676;26.348;2022-11-20T04:38:42;98306.59;;;17.55;100.00
34566;BME280;20803;42.676;26.348;2022-11-20T04:41:15;98306.72;;;17.52;100.00
34566;BME280;20803;42.676;26.348;2022-11-20T04:43:40;98315.16;;;17.52;100.00
34566;BME280;20803;42.676;26.348;2022-11-20T04:46:06;98316.72;;;17.53;100.00
34566;BME280;20803;42.676;26.348;2022-11-20T04:48:31;98316.56;;;17.47;100.00
34566;BME280;20803;42.676;26.348;2022-11-20T04:50:57;98308.16;;;17.38;100.00
34566;BME280;20803;42.676;26.348;2022-11-20T04:53:23;98321.41;;;17.28;100.00
34566;BME280;20803;42.676;26.348;2022-11-20T04:55:49;98319.53;;;17.16;100.00
34566;BME280;20803;42.676;26.348;2022-11-20T04:58:16;98313.75;;;17.11;100.00
34566;BME280;20803;42.676;26.348;2022-11-20T05:00:42;98306.88;;;17.02;100.00
34566;BME280;20803;42.676;26.348;2022-11-20T05:03:07;98320.75;;;16.97;100.00
34566;BME280;20803;42.676;26.348;2022-11-20T05:05:36;98316.84;;;16.94;100.00
34566;BME280;20803;42.676;26.348;2022-11-20T05:08:01;98337.59;;;16.97;100.00
34566;BME280;20803;42.676;26.348;2022-11-20T05:10:27;98333.41;;;17.01;100.00
34566;BME280;20803;42.676;26.348;2022-11-20T05:12:52;98324.50;;;17.03;100.00
34566;BME280;20803;42.676;26.348;2022-11-20T05:15:18;98332.13;;;17.02;100.00
34566;BME280;20803;42.676;26.348;2022-11-20T05:17:48;98318.88;;;17.03;100.00
34566;BME280;20803;42.676;26.348;2022-11-20T05:20:14;98335.28;;;17.04;100.00
34566;BME280;20803;42.676;26.348;2022-11-20T05:22:39;98329.50;;;17.08;100.00
34566;BME280;20803;42.676;26.348;2022-11-20T05:25:05;98333.09;;;17.09;100.00
34566;BME280;20803;42.676;26.348;2022-11-20T05:27:30;98344.97;;;17.13;100.00
34566;BME280;20803;42.676;26.348;2022-11-20T05:29:56;98319.69;;;17.13;100.00
34566;BME280;20803;42.676;26.348;2022-11-20T05:32:21;98331.25;;;17.24;100.00
34566;BME280;20803;42.676;26.348;2022-11-20T05:34:50;98335.94;;;17.36;100.00
34566;BME280;20803;42.676;26.348;2022-11-20T05:37:16;98328.56;;;17.20;100.00
34566;BME280;20803;42.676;26.348;2022-11-20T05:39:41;98353.53;;;17.18;100.00
34566;BME280;20803;42.676;26.348;2022-11-20T05:42:06;98357.75;;;17.14;100.00
34566;BME280;20803;42.676;26.348;2022-11-20T05:44:50;98350.56;;;17.22;100.00
34566;BME280;20803;42.676;26.348;2022-11-20T05:47:15;98354.66;;;17.30;100.00
34566;BME280;20803;42.676;26.348;2022-11-20T05:49:41;98360.59;;;17.32;100.00
34566;BME280;20803;42.676;26.348;2022-11-20T05:52:06;98347.78;;;17.31;100.00
34566;BME280;20803;42.676;26.348;2022-11-20T05:54:32;98351.69;;;17.33;100.00
34566;BME280;20803;42.676;26.348;2022-11-20T05:56:57;98357.00;;;17.40;100.00
34566;BME280;20803;42.676;26.348;2022-11-20T05:59:22;98369.19;;;17.37;100.00
34566;BME280;20803;42.676;26.348;2022-11-20T06:01:48;98364.94;;;17.51;100.00
34566;BME280;20803;42.676;26.348;2022-11-20T06:04:13;98364.34;;;17.56;100.00
34566;BME280;20803;42.676;26.348;2022-11-20T06:06:39;98364.53;;;17.62;100.00
34566;BME280;20803;42.676;26.348;2022-11-20T06:09:04;98379.81;;;17.61;100.00
34566;BME280;20803;42.676;26.348;2022-11-20T06:11:29;98382.28;;;17.59;100.00
34566;BME280;20803;42.676;26.348;2022-11-20T06:13:55;98381.22;;;17.56;100.00
34566;BME280;20803;42.676;26.348;2022-11-20T06:16:20;98388.25;;;17.61;100.00
34566;BME280;20803;42.676;26.348;2022-11-20T06:18:47;98381.50;;;17.58;100.00
34566;BME280;20803;42.676;26.348;2022-11-20T06:21:15;98388.56;;;17.63;100.00
34566;BME280;20803;42.676;26.348;2022-11-20T06:23:42;98384.66;;;17.69;100.00
34566;BME280;20803;42.676;26.348;2022-11-20T06:26:09;98381.38;;;17.71;100.00
34566;BME280;20803;42.676;26.348;2022-11-20T06:28:35;98382.16;;;17.71;100.00
34566;BME280;20803;42.676;26.348;2022-11-20T06:31:01;98384.34;;;17.76;100.00
34566;BME280;20803;42.676;26.348;2022-11-20T06:33:26;98377.00;;;17.79;100.00
34566;BME280;20803;42.676;26.348;2022-11-20T06:35:52;98384.03;;;17.83;100.00
34566;BME280;20803;42.676;26.348;2022-11-20T06:38:21;98382.63;;;17.70;100.00
34566;BME280;20803;42.676;26.348;2022-11-20T06:40:46;98380.13;;;17.81;100.00
34566;BME280;20803;42.676;26.348;2022-11-20T06:43:11;98386.22;;;17.89;100.00
34566;BME280;20803;42.676;26.348;2022-11-20T06:45:37;98386.34;;;17.94;100.00
34566;BME280;20803;42.676;26.348;2022-11-20T06:48:03;98374.22;;;17.79;100.00
34566;BME280;20803;42.676;26.348;2022-11-20T06:50:29;98388.09;;;17.92;100.00
34566;BME280;20803;42.676;26.348;2022-11-20T06:52:54;98378.41;;;17.83;100.00
34566;BME280;20803;42.676;26.348;2022-11-20T06:55:19;98387.31;;;17.73;100.00
34566;BME280;20803;42.676;26.348;2022-11-20T06:57:45;98381.84;;;17.78;100.00
34566;BME280;20803;42.676;26.348;2022-11-20T07:00:11;98393.72;;;17.82;100.00
34566;BME280;20803;42.676;26.348;2022-11-20T07:02:36;98396.97;;;17.81;100.00
34566;BME280;20803;42.676;26.348;2022-11-20T07:05:02;98407.63;;;17.86;100.00
34566;BME280;20803;42.676;26.348;2022-11-20T07:07:27;98404.97;;;17.92;100.00
34566;BME280;20803;42.676;26.348;2022-11-20T07:09:53;98404.50;;;17.84;100.00
34566;BME280;20803;42.676;26.348;2022-11-20T07:12:18;98411.50;;;17.89;100.00
34566;BME280;20803;42.676;26.348;2022-11-20T07:14:44;98414.00;;;17.77;100.00
34566;BME280;20803;42.676;26.348;2022-11-20T07:17:09;98413.38;;;17.82;100.00
34566;BME280;20803;42.676;26.348;2022-11-20T07:19:35;98406.53;;;17.74;100.00
34566;BME280;20803;42.676;26.348;2022-11-20T07:22:00;98413.69;;;17.75;100.00
34566;BME280;20803;42.676;26.348;2022-11-20T07:24:25;98410.28;;;17.80;100.00
34566;BME280;20803;42.676;26.348;2022-11-20T07:26:51;98410.88;;;17.75;100.00
34566;BME280;20803;42.676;26.348;2022-11-20T07:29:16;98412.78;;;17.78;100.00
34566;BME280;20803;42.676;26.348;2022-11-20T07:31:42;98412.94;;;17.84;100.00
34566;BME280;20803;42.676;26.348;2022-11-20T07:34:08;98415.44;;;17.91;100.00
34566;BME280;20803;42.676;26.348;2022-11-20T07:36:33;98411.53;;;17.98;100.00
34566;BME280;20803;42.676;26.348;2022-11-20T07:38:59;98418.06;;;18.04;100.00
34566;BME280;20803;42.676;26.348;2022-11-20T07:41:24;98418.69;;;18.08;100.00
34566;BME280;20803;42.676;26.348;2022-11-20T07:43:50;98409.31;;;18.11;100.00
34566;BME280;20803;42.676;26.348;2022-11-20T07:46:15;98404.78;;;18.13;100.00
34566;BME280;20803;42.676;26.348;2022-11-20T07:48:40;98406.03;;;18.12;100.00
34566;BME280;20803;42.676;26.348;2022-11-20T07:51:06;98404.44;;;18.11;100.00
34566;BME280;20803;42.676;26.348;2022-11-20T07:53:31;98400.56;;;18.09;100.00
34566;BME280;20803;42.676;26.348;2022-11-20T07:56:01;98403.38;;;18.09;100.00
34566;BME280;20803;42.676;26.348;2022-11-20T07:58:26;98393.84;;;18.06;100.00
34566;BME280;20803;42.676;26.348;2022-11-20T08:00:53;98399.47;;;18.06;100.00
34566;BME280;20803;42.676;26.348;2022-11-20T08:03:19;98393.38;;;18.08;100.00
34566;BME280;20803;42.676;26.348;2022-11-20T08:05:44;98381.03;;;18.14;100.00
34566;BME280;20803;42.676;26.348;2022-11-20T08:08:10;98377.13;;;18.21;100.00
34566;BME280;20803;42.676;26.348;2022-11-20T08:10:35;98370.38;;;18.18;100.00
34566;BME280;20803;42.676;26.348;2022-11-20T08:13:00;98374.47;;;18.17;100.00
34566;BME280;20803;42.676;26.348;2022-11-20T08:15:48;98370.88;;;18.17;100.00
34566;BME280;20803;42.676;26.348;2022-11-20T08:18:15;98376.19;;;18.15;100.00
34566;BME280;20803;42.676;26.348;2022-11-20T08:20:41;98369.78;;;18.14;100.00
34566;BME280;20803;42.676;26.348;2022-11-20T08:23:07;98372.75;;;18.11;100.00
34566;BME280;20803;42.676;26.348;2022-11-20T08:25:34;98373.53;;;18.11;100.00
34566;BME280;20803;42.676;26.348;2022-11-20T08:28:02;98367.75;;;18.15;100.00
34566;BME280;20803;42.676;26.348;2022-11-20T08:30:28;98373.97;;;18.19;100.00
34566;BME280;20803;42.676;26.348;2022-11-20T08:32:54;98376.47;;;18.26;100.00
34566;BME280;20803;42.676;26.348;2022-11-20T08:35:23;98369.91;;;18.29;100.00
34566;BME280;20803;42.676;26.348;2022-11-20T08:37:48;98373.00;;;18.31;100.00
34566;BME280;20803;42.676;26.348;2022-11-20T08:40:14;98372.53;;;18.33;100.00
34566;BME280;20803;42.676;26.348;2022-11-20T08:42:50;98376.16;;;18.33;100.00
34566;BME280;20803;42.676;26.348;2022-11-20T08:45:17;98371.63;;;18.36;100.00
34566;BME280;20803;42.676;26.348;2022-11-20T08:47:44;98379.56;;;18.37;100.00
34566;BME280;20803;42.676;26.348;2022-11-20T08:50:11;98376.75;;;18.37;100.00
34566;BME280;20803;42.676;26.348;2022-11-20T08:52:37;98376.75;;;18.37;100.00
34566;BME280;20803;42.676;26.348;2022-11-20T08:55:03;98375.34;;;18.42;100.00
34566;BME280;20803;42.676;26.348;2022-11-20T08:57:34;98366.91;;;18.42;100.00
34566;BME280;20803;42.676;26.348;2022-11-20T09:00:00;98365.16;;;18.44;100.00
34566;BME280;20803;42.676;26.348;2022-11-20T09:02:26;98378.44;;;18.44;100.00
34566;BME280;20803;42.676;26.348;2022-11-20T09:04:51;98373.28;;;18.42;100.00
34566;BME280;20803;42.676;26.348;2022-11-20T09:07:18;98370.19;;;18.31;100.00
34566;BME280;20803;42.676;26.348;2022-11-20T09:09:44;98367.56;;;18.28;100.00
34566;BME280;20803;42.676;26.348;2022-11-20T09:12:09;98360.69;;;18.29;100.00
34566;BME280;20803;42.676;26.348;2022-11-20T09:14:35;98355.19;;;18.34;100.00
34566;BME280;20803;42.676;26.348;2022-11-20T09:17:00;98349.72;;;18.40;100.00
34566;BME280;20803;42.676;26.348;2022-11-20T09:19:26;98339.25;;;18.40;100.00
34566;BME280;20803;42.676;26.348;2022-11-20T09:21:51;98333.44;;;18.44;100.00
34566;BME280;20803;42.676;26.348;2022-11-20T09:24:18;98325.31;;;18.46;100.00
34566;BME280;20803;42.676;26.348;2022-11-20T09:26:44;98324.06;;;18.47;100.00
34566;BME280;20803;42.676;26.348;2022-11-20T09:29:09;98315.63;;;18.47;100.00
34566;BME280;20803;42.676;26.348;2022-11-20T09:31:34;98309.97;;;18.47;100.00
34566;BME280;20803;42.676;26.348;2022-11-20T09:34:00;98314.50;;;18.44;100.00
34566;BME280;20803;42.676;26.348;2022-11-20T09:36:25;98310.91;;;18.44;100.00
34566;BME280;20803;42.676;26.348;2022-11-20T09:38:51;98303.09;;;18.48;100.00
34566;BME280;20803;42.676;26.348;2022-11-20T09:44:40;98296.19;;;18.58;100.00
34566;BME280;20803;42.676;26.348;2022-11-20T09:55:50;98298.00;;;18.70;100.00
34566;BME280;20803;42.676;26.348;2022-11-20T09:58:27;98306.16;;;18.68;100.00
34566;BME280;20803;42.676;26.348;2022-11-20T10:00:57;98296.91;;;18.68;100.00
34566;BME280;20803;42.676;26.348;2022-11-20T10:06:26;98280.09;;;18.58;100.00
34566;BME280;20803;42.676;26.348;2022-11-20T10:09:34;98288.53;;;18.58;100.00
34566;BME280;20803;42.676;26.348;2022-11-20T10:15:21;98261.81;;;18.54;100.00
34566;BME280;20803;42.676;26.348;2022-11-20T10:20:32;98269.97;;;18.43;100.00
34566;BME280;20803;42.676;26.348;2022-11-20T10:25:50;98259.81;;;18.45;100.00
34566;BME280;20803;42.676;26.348;2022-11-20T10:31:03;98259.53;;;18.67;100.00
34566;BME280;20803;42.676;26.348;2022-11-20T10:33:39;98252.44;;;18.81;100.00
34566;BME280;20803;42.676;26.348;2022-11-20T10:39:01;98258.59;;;18.94;100.00
34566;BME280;20803;42.676;26.348;2022-11-20T10:41:50;98262.13;;;19.03;100.00
34566;BME280;20803;42.676;26.348;2022-11-20T10:44:24;98269.72;;;19.12;100.00
34566;BME280;20803;42.676;26.348;2022-11-20T10:47:18;98273.66;;;19.29;100.00
34566;BME280;20803;42.676;26.348;2022-11-20T10:49:53;98277.44;;;19.50;100.00
34566;BME280;20803;42.676;26.348;2022-11-20T10:52:41;98280.56;;;19.67;100.00
34566;BME280;20803;42.676;26.348;2022-11-20T11:00:25;98284.09;;;19.38;100.00
34566;BME280;20803;42.676;26.348;2022-11-20T11:02:53;98288.88;;;19.47;100.00
34566;BME280;20803;42.676;26.348;2022-11-20T11:05:48;98274.00;;;19.46;100.00
34566;BME280;20803;42.676;26.348;2022-11-20T11:08:17;98277.19;;;19.39;100.00
34566;BME280;20803;42.676;26.348;2022-11-20T11:15:50;98265.63;;;19.37;100.00
34566;BME280;20803;42.676;26.348;2022-11-20T11:18:42;98265.56;;;19.46;100.00
34566;BME280;20803;42.676;26.348;2022-11-20T11:21:08;98267.63;;;19.46;100.00
34566;BME280;20803;42.676;26.348;2022-11-20T11:23:39;98257.09;;;19.46;100.00
34566;BME280;20803;42.676;26.348;2022-11-20T11:26:17;98257.75;;;19.41;100.00
34566;BME280;20803;42.676;26.348;2022-11-20T11:28:53;98273.34;;;19.51;100.00
34566;BME280;20803;42.676;26.348;2022-11-20T11:31:26;98263.34;;;19.50;100.00
34566;BME280;20803;42.676;26.348;2022-11-20T11:33:51;98264.63;;;19.40;100.00
34566;BME280;20803;42.676;26.348;2022-11-20T11:36:22;98253.88;;;19.38;100.00
34566;BME280;20803;42.676;26.348;2022-11-20T11:38:51;98242.97;;;19.31;100.00
34566;BME280;20803;42.676;26.348;2022-11-20T11:41:22;98245.69;;;19.40;100.00
34566;BME280;20803;42.676;26.348;2022-11-20T11:44:00;98253.66;;;19.42;100.00
34566;BME280;20803;42.676;26.348;2022-11-20T11:46:53;98248.50;;;19.40;100.00
34566;BME280;20803;42.676;26.348;2022-11-20T11:49:20;98240.25;;;19.37;100.00
34566;BME280;20803;42.676;26.348;2022-11-20T11:57:23;98220.59;;;19.28;100.00
34566;BME280;20803;42.676;26.348;2022-11-20T12:00:03;98232.97;;;19.30;100.00
34566;BME280;20803;42.676;26.348;2022-11-20T12:05:00;98204.78;;;19.30;100.00
34566;BME280;20803;42.676;26.348;2022-11-20T12:07:42;98215.75;;;19.28;100.00
34566;BME280;20803;42.676;26.348;2022-11-20T12:10:22;98213.53;;;19.32;100.00
34566;BME280;20803;42.676;26.348;2022-11-20T12:12:52;98222.38;;;19.25;100.00
34566;BME280;20803;42.676;26.348;2022-11-20T12:15:29;98205.75;;;19.27;100.00
34566;BME280;20803;42.676;26.348;2022-11-20T12:17:55;98209.22;;;19.22;100.00
34566;BME280;20803;42.676;26.348;2022-11-20T12:20:24;98202.16;;;19.27;100.00
34566;BME280;20803;42.676;26.348;2022-11-20T12:23:04;98195.94;;;19.23;100.00
34566;BME280;20803;42.676;26.348;2022-11-20T12:25:35;98193.41;;;19.25;100.00
34566;BME280;20803;42.676;26.348;2022-11-20T12:28:13;98189.34;;;19.26;100.00
34566;BME280;20803;42.676;26.348;2022-11-20T12:30:55;98195.25;;;19.28;100.00
34566;BME280;20803;42.676;26.348;2022-11-20T12:38:39;98199.63;;;19.14;100.00
34566;BME280;20803;42.676;26.348;2022-11-20T12:41:33;98198.13;;;19.04;100.00
34566;BME280;20803;42.676;26.348;2022-11-20T12:53:26;98195.97;;;18.99;100.00
34566;BME280;20803;42.676;26.348;2022-11-20T13:06:39;98179.66;;;19.03;100.00
34566;BME280;20803;42.676;26.348;2022-11-20T13:09:09;98177.25;;;19.11;100.00
34566;BME280;20803;42.676;26.348;2022-11-20T13:14:42;98154.75;;;19.25;100.00
34566;BME280;20803;42.676;26.348;2022-11-20T13:17:22;98174.38;;;19.34;100.00
34566;BME280;20803;42.676;26.348;2022-11-20T13:19:52;98169.72;;;19.46;100.00
34566;BME280;20803;42.676;26.348;2022-11-20T13:22:41;98172.06;;;19.48;100.00
34566;BME280;20803;42.676;26.348;2022-11-20T13:25:31;98169.34;;;19.53;100.00
34566;BME280;20803;42.676;26.348;2022-11-20T13:28:00;98148.44;;;19.45;100.00
34566;BME280;20803;42.676;26.348;2022-11-20T13:30:28;98143.63;;;19.46;100.00
34566;BME280;20803;42.676;26.348;2022-11-20T13:33:06;98155.56;;;19.55;99.93
34566;BME280;20803;42.676;26.348;2022-11-20T13:35:36;98148.44;;;19.60;100.00
34566;BME280;20803;42.676;26.348;2022-11-20T13:38:13;98159.81;;;19.65;98.97
34566;BME280;20803;42.676;26.348;2022-11-20T13:40:59;98151.19;;;19.69;99.42
34566;BME280;20803;42.676;26.348;2022-11-20T13:43:47;98158.06;;;19.68;99.82
34566;BME280;20803;42.676;26.348;2022-11-20T13:46:12;98157.50;;;19.64;99.20
34566;BME280;20803;42.676;26.348;2022-11-20T13:48:40;98164.69;;;19.65;99.07
34566;BME280;20803;42.676;26.348;2022-11-20T13:51:14;98163.72;;;19.53;99.43
34566;BME280;20803;42.676;26.348;2022-11-20T14:01:53;98157.91;;;19.57;100.00
34566;BME280;20803;42.676;26.348;2022-11-20T14:04:33;98147.41;;;19.57;99.79
34566;BME280;20803;42.676;26.348;2022-11-20T14:07:00;98156.91;;;19.60;100.00
34566;BME280;20803;42.676;26.348;2022-11-20T14:09:28;98148.63;;;19.41;100.00
34566;BME280;20803;42.676;26.348;2022-11-20T14:11:53;98152.69;;;19.40;100.00
34566;BME280;20803;42.676;26.348;2022-11-20T14:14:27;98152.69;;;19.40;100.00
34566;BME280;20803;42.676;26.348;2022-11-20T14:17:07;98153.22;;;19.39;100.00
34566;BME280;20803;42.676;26.348;2022-11-20T14:19:34;98149.59;;;19.38;100.00